createdAt,value
2019-03-30T00:00:30.980Z,16.43
2019-03-30T00:03:02.350Z,16.43
2019-03-30T00:05:32.778Z,16.93
2019-03-30T00:08:03.196Z,16.97
2019-03-30T00:10:33.748Z,15.97
2019-03-30T00:13:04.165Z,17.83
2019-03-30T00:15:34.611Z,16.53
2019-03-30T00:18:05.001Z,17.33
2019-03-30T00:20:35.458Z,16.77
2019-03-30T00:23:05.860Z,15.73
2019-03-30T00:25:36.359Z,16.07
2019-03-30T00:28:06.775Z,16.40
2019-03-30T00:30:37.246Z,16.87
2019-03-30T00:33:07.689Z,16.93
2019-03-30T00:35:38.167Z,16.57
2019-03-30T00:38:08.599Z,16.13
2019-03-30T00:40:39.060Z,16.60
2019-03-30T00:43:09.501Z,16.60
2019-03-30T00:45:39.984Z,16.40
2019-03-30T00:48:10.454Z,16.37
2019-03-30T00:50:40.959Z,18.03
2019-03-30T00:53:11.376Z,18.10
2019-03-30T00:55:41.838Z,18.60
2019-03-30T00:58:12.259Z,18.67
2019-03-30T01:00:42.753Z,19.33
2019-03-30T01:03:13.394Z,19.37
2019-03-30T01:05:43.834Z,19.40
2019-03-30T01:08:14.261Z,17.97
2019-03-30T01:10:44.804Z,19.17
2019-03-30T01:13:15.235Z,18.53
2019-03-30T01:15:47.121Z,17.50
2019-03-30T01:18:17.543Z,15.53
2019-03-30T01:20:48.018Z,15.70
2019-03-30T01:23:18.445Z,16.07
2019-03-30T01:25:48.920Z,15.27
2019-03-30T01:28:19.367Z,14.77
2019-03-30T01:30:49.819Z,15.10
2019-03-30T01:33:20.265Z,14.00
2019-03-30T01:35:50.704Z,14.70
2019-03-30T01:38:21.149Z,14.47
2019-03-30T01:40:51.625Z,14.93
2019-03-30T01:43:22.061Z,13.77
2019-03-30T01:45:52.527Z,15.10
2019-03-30T01:48:22.934Z,14.20
2019-03-30T01:50:53.377Z,14.37
2019-03-30T01:53:23.743Z,13.73
2019-03-30T01:55:54.228Z,12.93
2019-03-30T01:58:24.660Z,14.37
2019-03-30T02:00:55.125Z,14.10
2019-03-30T02:03:26.440Z,14.37
2019-03-30T02:05:56.913Z,14.03
2019-03-30T02:08:27.328Z,15.33
2019-03-30T02:10:57.880Z,14.33
2019-03-30T02:13:28.286Z,13.87
2019-03-30T02:15:58.736Z,14.27
2019-03-30T02:18:29.438Z,14.10
2019-03-30T02:20:59.970Z,14.30
2019-03-30T02:23:30.393Z,14.93
2019-03-30T02:26:00.847Z,15.57
2019-03-30T02:28:31.273Z,16.50
2019-03-30T02:31:01.764Z,15.30
2019-03-30T02:33:32.185Z,16.30
2019-03-30T02:36:02.694Z,15.73
2019-03-30T02:38:33.110Z,15.40
2019-03-30T02:41:03.609Z,15.00
2019-03-30T02:43:34.041Z,14.40
2019-03-30T02:46:06.559Z,14.80
2019-03-30T02:48:36.989Z,14.87
2019-03-30T02:51:07.450Z,15.00
2019-03-30T02:53:37.860Z,15.87
2019-03-30T02:56:08.361Z,16.07
2019-03-30T02:58:38.762Z,17.20
2019-03-30T03:01:09.266Z,17.57
2019-03-30T03:03:40.560Z,17.47
2019-03-30T03:06:11.136Z,19.53
2019-03-30T03:08:41.545Z,18.63
2019-03-30T03:11:12.111Z,18.70
2019-03-30T03:13:42.550Z,20.57
2019-03-30T03:16:13.044Z,19.93
2019-03-30T03:18:43.429Z,18.57
2019-03-30T03:21:13.902Z,19.20
2019-03-30T03:23:44.303Z,19.87
2019-03-30T03:26:14.786Z,19.27
2019-03-30T03:28:45.216Z,19.70
2019-03-30T03:31:15.680Z,19.93
2019-03-30T03:33:46.130Z,19.33
2019-03-30T03:36:16.570Z,20.97
2019-03-30T03:38:46.944Z,19.10
2019-03-30T03:41:17.438Z,19.47
2019-03-30T03:43:47.865Z,20.43
2019-03-30T03:46:18.331Z,18.53
2019-03-30T03:48:48.782Z,22.07
2019-03-30T03:51:26.072Z,20.17
2019-03-30T03:53:53.202Z,20.90
2019-03-30T03:56:25.949Z,19.43
2019-03-30T03:58:57.888Z,22.87
2019-03-30T04:01:28.572Z,21.67
2019-03-30T04:04:00.662Z,20.17
2019-03-30T04:06:33.005Z,20.63
2019-03-30T04:09:04.887Z,22.23
2019-03-30T04:11:38.093Z,22.00
2019-03-30T04:14:11.743Z,22.50
2019-03-30T04:16:42.202Z,20.50
2019-03-30T04:19:12.606Z,23.77
2019-03-30T04:21:44.811Z,24.83
2019-03-30T04:24:15.201Z,26.60
2019-03-30T04:26:45.685Z,29.73
2019-03-30T04:29:16.104Z,34.53
2019-03-30T04:31:46.597Z,38.93
2019-03-30T04:34:17.037Z,37.93
2019-03-30T04:36:47.562Z,38.70
2019-03-30T04:39:18.001Z,38.47
2019-03-30T04:41:48.486Z,39.27
2019-03-30T04:44:18.912Z,40.10
2019-03-30T04:46:49.411Z,38.93
2019-03-30T04:49:19.854Z,40.17
2019-03-30T04:51:57.415Z,40.80
2019-03-30T04:54:22.499Z,40.57
2019-03-30T04:56:52.990Z,39.63
2019-03-30T04:59:23.437Z,39.90
2019-03-30T05:01:53.927Z,37.97
2019-03-30T05:04:25.280Z,39.33
2019-03-30T05:06:55.785Z,37.73
2019-03-30T05:09:26.213Z,35.77
2019-03-30T05:11:56.784Z,35.37
2019-03-30T05:14:27.282Z,34.47
2019-03-30T05:16:57.792Z,35.53
2019-03-30T05:19:28.275Z,32.67
2019-03-30T05:22:11.443Z,32.43
2019-03-30T05:24:30.901Z,31.07
2019-03-30T05:27:01.404Z,32.00
2019-03-30T05:29:31.855Z,29.23
2019-03-30T05:32:02.339Z,28.27
2019-03-30T05:34:32.783Z,28.00
2019-03-30T05:37:03.299Z,30.27
2019-03-30T05:39:33.756Z,31.17
2019-03-30T05:42:04.224Z,31.30
2019-03-30T05:44:34.670Z,32.40
2019-03-30T05:47:05.140Z,31.90
2019-03-30T05:49:35.596Z,30.20
2019-03-30T05:52:06.096Z,30.37
2019-03-30T05:54:36.564Z,28.73
2019-03-30T05:57:07.065Z,29.33
2019-03-30T05:59:37.553Z,32.23
2019-03-30T06:02:08.022Z,27.13
2019-03-30T06:04:38.803Z,28.57
2019-03-30T06:07:09.291Z,26.87
2019-03-30T06:09:39.764Z,24.77
2019-03-30T06:12:10.320Z,26.83
2019-03-30T06:14:40.744Z,28.50
2019-03-30T06:17:11.248Z,28.67
2019-03-30T06:19:41.702Z,28.73
2019-03-30T06:22:12.169Z,25.73
2019-03-30T06:24:42.593Z,25.30
2019-03-30T06:27:13.083Z,23.57
2019-03-30T06:29:43.477Z,26.37
2019-03-30T06:32:13.970Z,37.53
2019-03-30T06:34:44.414Z,30.17
2019-03-30T06:37:14.915Z,42.73
2019-03-30T06:39:45.354Z,38.73
2019-03-30T06:42:15.807Z,29.63
2019-03-30T06:44:46.284Z,26.37
2019-03-30T06:47:16.807Z,25.33
2019-03-30T06:49:47.290Z,24.53
2019-03-30T06:52:17.890Z,24.27
2019-03-30T06:54:48.353Z,28.13
2019-03-30T06:57:18.835Z,29.33
2019-03-30T06:59:49.299Z,30.30
2019-03-30T07:02:19.821Z,26.60
2019-03-30T07:04:51.789Z,24.90
2019-03-30T07:07:23.718Z,27.40
2019-03-30T07:09:54.241Z,28.23
2019-03-30T07:12:24.892Z,32.77
2019-03-30T07:14:58.279Z,27.60
2019-03-30T07:17:29.974Z,30.63
2019-03-30T07:20:02.734Z,28.00
2019-03-30T07:22:33.244Z,23.77
2019-03-30T07:25:03.800Z,25.57
2019-03-30T07:27:34.326Z,23.90
2019-03-30T07:30:08.564Z,24.83
2019-03-30T07:32:39.092Z,22.40
2019-03-30T07:35:09.538Z,23.27
2019-03-30T07:37:40.052Z,20.30
2019-03-30T07:40:10.727Z,22.17
2019-03-30T07:42:41.192Z,21.60
2019-03-30T07:45:12.943Z,21.77
2019-03-30T07:47:43.481Z,17.80
2019-03-30T07:50:14.009Z,17.63
2019-03-30T07:52:44.519Z,20.57
2019-03-30T07:55:14.976Z,19.23
2019-03-30T07:57:45.468Z,19.60
2019-03-30T08:00:16.829Z,21.70
2019-03-30T08:02:47.322Z,18.63
2019-03-30T08:05:18.785Z,18.40
2019-03-30T08:07:49.259Z,22.37
2019-03-30T08:10:19.789Z,19.63
2019-03-30T08:12:50.354Z,18.73
2019-03-30T08:15:20.939Z,15.27
2019-03-30T08:17:53.199Z,15.43
2019-03-30T08:20:24.150Z,16.30
2019-03-30T08:22:54.614Z,18.10
2019-03-30T08:25:25.205Z,14.50
2019-03-30T08:27:55.704Z,14.97
2019-03-30T08:30:26.145Z,14.80
2019-03-30T08:32:56.735Z,14.67
2019-03-30T08:35:27.230Z,14.67
2019-03-30T08:37:57.828Z,15.23
2019-03-30T08:40:28.368Z,15.40
2019-03-30T08:42:58.902Z,16.00
2019-03-30T08:45:29.377Z,15.97
2019-03-30T08:47:59.887Z,16.83
2019-03-30T08:50:30.346Z,17.20
2019-03-30T08:53:00.879Z,16.77
2019-03-30T08:55:31.372Z,20.50
2019-03-30T08:58:01.975Z,18.27
2019-03-30T09:00:40.268Z,18.63
2019-03-30T09:03:10.991Z,17.93
2019-03-30T09:05:42.388Z,16.90
2019-03-30T09:08:12.897Z,17.87
2019-03-30T09:10:43.450Z,16.77
2019-03-30T09:13:15.626Z,16.43
2019-03-30T09:15:46.083Z,14.57
2019-03-30T09:18:16.607Z,14.77
2019-03-30T09:20:47.074Z,16.77
2019-03-30T09:23:17.619Z,14.73
2019-03-30T09:25:48.098Z,14.43
2019-03-30T09:28:18.730Z,15.50
2019-03-30T09:30:49.170Z,17.13
2019-03-30T09:33:19.782Z,17.90
2019-03-30T09:35:50.318Z,17.70
2019-03-30T09:38:20.855Z,15.97
2019-03-30T09:40:51.361Z,15.53
2019-03-30T09:43:21.867Z,14.83
2019-03-30T09:45:52.353Z,18.47
2019-03-30T09:48:22.861Z,14.27
2019-03-30T09:50:53.312Z,15.60
2019-03-30T09:53:23.800Z,13.50
2019-03-30T09:55:54.277Z,13.73
2019-03-30T09:58:24.774Z,13.90
2019-03-30T10:00:55.220Z,13.50
2019-03-30T10:03:25.748Z,13.50
2019-03-30T10:05:57.082Z,13.13
2019-03-30T10:08:27.632Z,15.70
2019-03-30T10:10:58.131Z,15.70
2019-03-30T10:13:28.750Z,15.63
2019-03-30T10:15:59.218Z,13.87
2019-03-30T10:18:29.813Z,15.23
2019-03-30T10:21:00.277Z,16.53
2019-03-30T10:23:30.806Z,14.20
2019-03-30T10:26:01.351Z,13.60
2019-03-30T10:28:31.899Z,13.20
2019-03-30T10:31:02.390Z,13.33
2019-03-30T10:33:32.913Z,13.60
2019-03-30T10:36:03.371Z,16.83
2019-03-30T10:38:34.277Z,13.30
2019-03-30T10:41:04.734Z,12.57
2019-03-30T10:43:35.323Z,12.07
2019-03-30T10:46:06.241Z,13.37
2019-03-30T10:48:36.877Z,13.67
2019-03-30T10:51:07.365Z,13.50
2019-03-30T10:53:39.427Z,12.97
2019-03-30T10:56:09.979Z,12.70
2019-03-30T10:58:40.492Z,13.30
2019-03-30T11:01:11.082Z,14.53
2019-03-30T11:03:41.599Z,15.40
2019-03-30T11:06:13.003Z,14.70
2019-03-30T11:08:43.708Z,14.10
2019-03-30T11:11:14.240Z,14.00
2019-03-30T11:13:44.851Z,14.47
2019-03-30T11:16:15.317Z,13.40
2019-03-30T11:18:45.894Z,15.00
2019-03-30T11:21:16.502Z,13.60
2019-03-30T11:23:47.033Z,12.57
2019-03-30T11:26:17.869Z,13.10
2019-03-30T11:28:48.417Z,13.33
2019-03-30T11:31:19.901Z,13.23
2019-03-30T11:33:50.395Z,13.50
2019-03-30T11:36:20.846Z,14.27
2019-03-30T11:38:51.399Z,14.87
2019-03-30T11:41:24.851Z,14.40
2019-03-30T11:43:53.994Z,12.83
2019-03-30T11:46:24.437Z,13.57
2019-03-30T11:48:54.938Z,13.07
2019-03-30T11:51:26.640Z,13.67
2019-03-30T11:53:57.177Z,13.83
2019-03-30T11:56:27.606Z,14.93
2019-03-30T11:58:58.127Z,15.47
2019-03-30T12:01:28.656Z,15.17
2019-03-30T12:03:59.109Z,15.43
2019-03-30T12:06:30.362Z,17.47
2019-03-30T12:09:00.866Z,14.97
2019-03-30T12:11:31.299Z,15.70
2019-03-30T12:14:01.857Z,15.07
2019-03-30T12:16:32.295Z,16.77
2019-03-30T12:19:02.905Z,15.70
2019-03-30T12:21:33.341Z,18.87
2019-03-30T12:24:03.798Z,17.40
2019-03-30T12:26:34.227Z,17.42
2019-03-30T12:29:04.700Z,18.23
2019-03-30T12:31:35.117Z,16.55
2019-03-30T12:34:05.581Z,15.15
2019-03-30T12:36:36.129Z,16.45
2019-03-30T12:39:08.235Z,17.50
2019-03-30T12:41:38.657Z,14.45
2019-03-30T12:44:09.144Z,17.27
2019-03-30T12:46:39.585Z,15.93
2019-03-30T12:49:10.109Z,14.13
2019-03-30T12:51:40.527Z,14.90
2019-03-30T12:54:11.025Z,16.15
2019-03-30T12:56:41.471Z,14.90
2019-03-30T12:59:11.949Z,15.78
2019-03-30T13:01:42.386Z,14.95
2019-03-30T13:04:12.859Z,14.63
2019-03-30T13:06:44.175Z,14.28
2019-03-30T13:09:14.646Z,16.50
2019-03-30T13:11:45.089Z,17.23
2019-03-30T13:14:15.667Z,24.57
2019-03-30T13:16:46.106Z,32.53
2019-03-30T13:19:16.600Z,16.80
2019-03-30T13:21:52.790Z,31.37
2019-03-30T13:24:19.238Z,18.67
2019-03-30T13:26:49.692Z,18.42
2019-03-30T13:29:20.204Z,57.73
2019-03-30T13:31:50.625Z,17.82
2019-03-30T13:34:21.034Z,16.45
2019-03-30T13:36:51.464Z,20.17
2019-03-30T13:39:21.956Z,15.93
2019-03-30T13:41:52.395Z,18.25
2019-03-30T13:44:22.880Z,16.52
2019-03-30T13:46:53.338Z,15.53
2019-03-30T13:49:23.817Z,15.13
2019-03-30T13:51:54.271Z,15.32
2019-03-30T13:54:24.749Z,15.50
2019-03-30T13:56:55.186Z,15.35
2019-03-30T13:59:25.671Z,15.90
2019-03-30T14:01:56.092Z,17.80
2019-03-30T14:04:26.572Z,15.35
2019-03-30T14:06:58.079Z,15.13
2019-03-30T14:09:28.564Z,13.98
2019-03-30T14:11:59.011Z,15.40
2019-03-30T14:14:29.559Z,26.97
2019-03-30T14:17:00.015Z,16.95
2019-03-30T14:19:30.518Z,16.45
2019-03-30T14:22:00.997Z,16.70
2019-03-30T14:24:31.498Z,16.67
2019-03-30T14:27:01.909Z,16.85
2019-03-30T14:29:32.395Z,16.13
2019-03-30T14:32:02.864Z,15.55
2019-03-30T14:34:33.320Z,17.67
2019-03-30T14:37:03.774Z,17.70
2019-03-30T14:39:34.259Z,16.83
2019-03-30T14:42:04.914Z,17.97
2019-03-30T14:44:35.372Z,18.30
2019-03-30T14:47:05.819Z,19.50
2019-03-30T14:49:36.298Z,20.47
2019-03-30T14:52:06.737Z,18.83
2019-03-30T14:54:37.273Z,22.00
2019-03-30T14:57:07.715Z,21.87
2019-03-30T14:59:38.247Z,20.20
2019-03-30T15:02:08.694Z,20.23
2019-03-30T15:04:39.274Z,21.37
2019-03-30T15:07:11.443Z,20.27
2019-03-30T15:09:41.964Z,20.53
2019-03-30T15:12:12.482Z,19.23
2019-03-30T15:14:43.063Z,19.10
2019-03-30T15:17:13.511Z,19.43
2019-03-30T15:19:44.029Z,19.17
2019-03-30T15:22:14.526Z,19.93
2019-03-30T15:24:45.007Z,19.97
2019-03-30T15:27:15.441Z,20.87
2019-03-30T15:29:45.891Z,21.93
2019-03-30T15:32:16.325Z,20.77
2019-03-30T15:34:46.789Z,19.80
2019-03-30T15:37:17.279Z,19.47
2019-03-30T15:39:47.879Z,19.03
2019-03-30T15:42:18.377Z,18.47
2019-03-30T15:44:48.842Z,21.43
2019-03-30T15:47:19.270Z,20.43
2019-03-30T15:49:49.736Z,20.97
2019-03-30T15:52:20.346Z,19.63
2019-03-30T15:54:50.823Z,21.03
2019-03-30T15:57:21.276Z,21.47
2019-03-30T15:59:51.795Z,23.00
2019-03-30T16:02:22.638Z,22.97
2019-03-30T16:04:53.111Z,22.03
2019-03-30T16:07:24.405Z,22.97
2019-03-30T16:09:54.944Z,22.60
2019-03-30T16:12:25.376Z,23.40
2019-03-30T16:14:55.923Z,24.63
2019-03-30T16:17:26.365Z,24.93
2019-03-30T16:19:56.874Z,22.50
2019-03-30T16:22:27.307Z,23.97
2019-03-30T16:24:57.801Z,24.63
2019-03-30T16:27:29.505Z,27.40
2019-03-30T16:30:00.314Z,31.33
2019-03-30T16:32:30.818Z,37.00
2019-03-30T16:35:01.279Z,30.63
2019-03-30T16:37:31.726Z,28.10
2019-03-30T16:40:02.313Z,24.67
2019-03-30T16:42:32.770Z,25.77
2019-03-30T16:45:03.271Z,23.17
2019-03-30T16:47:33.811Z,22.77
2019-03-30T16:50:05.555Z,34.77
2019-03-30T16:52:36.040Z,30.10
2019-03-30T16:55:06.617Z,28.20
2019-03-30T16:57:43.666Z,30.43
2019-03-30T17:00:09.996Z,26.63
2019-03-30T17:02:40.449Z,27.13
2019-03-30T17:05:11.726Z,36.23
2019-03-30T17:07:43.122Z,29.23
2019-03-30T17:10:13.706Z,30.03
2019-03-30T17:12:44.161Z,27.77
2019-03-30T17:15:14.730Z,33.40
2019-03-30T17:17:45.194Z,29.80
2019-03-30T17:20:15.699Z,32.53
2019-03-30T17:22:46.144Z,44.87
2019-03-30T17:25:16.642Z,40.97
2019-03-30T17:27:58.145Z,39.13
2019-03-30T17:30:19.271Z,41.20
2019-03-30T17:32:49.739Z,43.20
2019-03-30T17:35:20.218Z,41.20
2019-03-30T17:37:50.659Z,39.43
2019-03-30T17:40:21.174Z,34.93
2019-03-30T17:42:51.620Z,34.57
2019-03-30T17:45:22.117Z,37.33
2019-03-30T17:47:52.572Z,33.43
2019-03-30T17:50:23.041Z,41.67
2019-03-30T17:52:53.510Z,58.00
2019-03-30T17:55:33.486Z,59.30
2019-03-30T17:57:56.171Z,34.03
2019-03-30T18:00:26.619Z,35.60
2019-03-30T18:02:57.041Z,37.43
2019-03-30T18:05:27.528Z,33.33
2019-03-30T18:08:01.698Z,34.87
2019-03-30T18:10:31.025Z,34.67
2019-03-30T18:13:01.467Z,32.40
2019-03-30T18:15:34.642Z,31.80
2019-03-30T18:18:04.144Z,30.60
2019-03-30T18:20:34.605Z,31.17
2019-03-30T18:23:05.033Z,33.83
2019-03-30T18:25:35.531Z,40.30
2019-03-30T18:28:05.969Z,39.83
2019-03-30T18:30:39.348Z,44.00
2019-03-30T18:33:09.944Z,55.37
2019-03-30T18:35:41.023Z,51.43
2019-03-30T18:38:13.065Z,47.13
2019-03-30T18:40:43.887Z,45.67
2019-03-30T18:43:14.341Z,47.00
2019-03-30T18:45:44.846Z,47.63
2019-03-30T18:48:17.031Z,47.23
2019-03-30T18:50:47.930Z,48.47
2019-03-30T18:53:18.380Z,50.60
2019-03-30T18:55:48.888Z,45.83
2019-03-30T18:58:19.356Z,50.73
2019-03-30T19:00:49.862Z,51.10
2019-03-30T19:03:22.234Z,53.33
2019-03-30T19:05:52.740Z,51.57
2019-03-30T19:08:24.082Z,49.67
2019-03-30T19:10:54.583Z,50.37
2019-03-30T19:13:25.060Z,65.77
2019-03-30T19:15:55.641Z,82.67
2019-03-30T19:18:26.113Z,72.50
2019-03-30T19:20:56.613Z,65.07
2019-03-30T19:23:27.059Z,64.50
2019-03-30T19:25:57.569Z,60.97
2019-03-30T19:28:28.184Z,54.87
2019-03-30T19:30:58.660Z,56.60
2019-03-30T19:33:29.169Z,54.27
2019-03-30T19:35:59.659Z,65.83
2019-03-30T19:38:30.100Z,64.37
2019-03-30T19:41:00.572Z,72.50
2019-03-30T19:43:31.060Z,78.00
2019-03-30T19:46:01.547Z,72.87
2019-03-30T19:48:31.986Z,86.87
2019-03-30T19:51:02.508Z,77.83
2019-03-30T19:53:32.923Z,77.33
2019-03-30T19:56:03.411Z,74.90
2019-03-30T19:58:33.859Z,69.83
2019-03-30T20:01:04.410Z,76.80
2019-03-30T20:03:34.935Z,74.43
2019-03-30T20:06:05.348Z,76.83
2019-03-30T20:08:36.716Z,74.20
2019-03-30T20:11:07.238Z,81.17
2019-03-30T20:13:37.717Z,74.40
2019-03-30T20:16:08.268Z,70.00
2019-03-30T20:18:38.712Z,74.30
2019-03-30T20:21:09.193Z,67.67
2019-03-30T20:23:39.629Z,68.23
2019-03-30T20:26:10.123Z,71.50
2019-03-30T20:28:40.574Z,80.00
2019-03-30T20:31:11.072Z,105.37
2019-03-30T20:33:41.500Z,94.63
2019-03-30T20:36:12.001Z,90.10
2019-03-30T20:38:42.457Z,91.57
2019-03-30T20:41:13.323Z,88.90
2019-03-30T20:43:43.795Z,83.47
2019-03-30T20:46:14.280Z,76.50
2019-03-30T20:48:44.751Z,85.50
2019-03-30T20:51:15.296Z,78.40
2019-03-30T20:53:45.800Z,83.17
2019-03-30T20:56:16.309Z,79.37
2019-03-30T20:58:46.783Z,75.17
2019-03-30T21:01:17.265Z,116.13
2019-03-30T21:03:47.711Z,106.10
2019-03-30T21:06:18.228Z,94.47
2019-03-30T21:08:49.553Z,91.50
2019-03-30T21:11:20.026Z,112.97
2019-03-30T21:13:50.512Z,113.97
2019-03-30T21:16:21.080Z,79.30
2019-03-30T21:18:51.528Z,76.20
2019-03-30T21:21:22.014Z,73.27
2019-03-30T21:23:52.434Z,71.97
2019-03-30T21:26:22.906Z,70.30
2019-03-30T21:28:53.374Z,69.07
2019-03-30T21:31:23.910Z,69.80
2019-03-30T21:33:54.396Z,74.23
2019-03-30T21:36:24.911Z,67.67
2019-03-30T21:38:55.384Z,65.67
2019-03-30T21:41:25.876Z,65.20
2019-03-30T21:43:56.361Z,68.77
2019-03-30T21:46:26.870Z,68.83
2019-03-30T21:48:57.327Z,72.13
2019-03-30T21:51:27.828Z,75.77
2019-03-30T21:53:58.269Z,74.13
2019-03-30T21:56:28.729Z,78.63
2019-03-30T21:58:59.154Z,79.90
2019-03-30T22:01:29.665Z,80.43
2019-03-30T22:04:00.117Z,74.77
2019-03-30T22:06:30.728Z,71.00
2019-03-30T22:09:02.059Z,79.03
2019-03-30T22:11:32.551Z,71.83
2019-03-30T22:14:02.977Z,70.77
2019-03-30T22:16:33.543Z,67.57
2019-03-30T22:19:04.010Z,67.30
2019-03-30T22:21:34.492Z,66.37
2019-03-30T22:24:04.928Z,64.47
2019-03-30T22:26:35.401Z,64.37
2019-03-30T22:29:05.846Z,66.70
2019-03-30T22:31:36.231Z,66.67
2019-03-30T22:34:06.710Z,69.07
2019-03-30T22:36:37.192Z,74.60
2019-03-30T22:39:08.029Z,73.97
2019-03-30T22:41:38.512Z,75.20
2019-03-30T22:44:08.970Z,79.73
2019-03-30T22:46:39.450Z,78.47
2019-03-30T22:49:09.894Z,79.77
2019-03-30T22:51:40.347Z,80.63
2019-03-30T22:54:10.809Z,80.17
2019-03-30T22:56:41.282Z,76.53
2019-03-30T22:59:11.731Z,75.87
2019-03-30T23:01:42.341Z,72.97
2019-03-30T23:04:12.758Z,73.73
2019-03-30T23:06:43.219Z,68.70
2019-03-30T23:09:14.598Z,66.67
2019-03-30T23:11:45.131Z,64.57
2019-03-30T23:14:15.544Z,61.83
2019-03-30T23:16:46.140Z,63.47
2019-03-30T23:19:16.582Z,60.70
2019-03-30T23:21:47.035Z,63.20
2019-03-30T23:24:17.505Z,65.73
2019-03-30T23:26:47.984Z,64.50
2019-03-30T23:29:18.449Z,62.53
2019-03-30T23:31:48.935Z,64.03
2019-03-30T23:34:19.372Z,63.73
2019-03-30T23:36:49.891Z,66.33
2019-03-30T23:39:20.336Z,64.13
2019-03-30T23:41:50.820Z,63.73
2019-03-30T23:44:21.272Z,62.20
2019-03-30T23:46:51.742Z,59.13
2019-03-30T23:49:22.181Z,59.30
2019-03-30T23:51:52.683Z,58.93
2019-03-30T23:54:23.115Z,58.30
2019-03-30T23:56:53.652Z,59.17
2019-03-30T23:59:24.087Z,60.27
